Time;durP1;ratioP1;P1;durP2;ratioP2;P2;SDS_P1;SDS_P2;PMS_P1;PMS_P2;Temp;Humidity;BMP_temperature;BMP_pressure;BME280_temperature;BME280_humidity;BME280_pressure;Samples;Min_cycle;Max_cycle;Signal;HPM_P1;HPM_P2
2022/07/15 00:01:08;;;;;;;11.93;3.78;;;;;;;14.13;79.80;102164.31;4894106;29;20036;-68
2022/07/15 00:03:33;;;;;;;5.53;2.75;;;;;;;14.10;80.02;102162.00;4894003;29;20036;-67
2022/07/15 00:05:58;;;;;;;8.05;3.17;;;;;;;13.98;80.35;102145.53;4893668;29;20053;-67
2022/07/15 00:08:24;;;;;;;9.45;2.70;;;;;;;14.01;80.21;102162.06;4893985;29;20031;-68
2022/07/15 00:10:49;;;;;;;9.07;3.15;;;;;;;13.95;80.24;102157.47;4893930;29;20523;-67
2022/07/15 00:13:15;;;;;;;7.60;3.30;;;;;;;13.95;81.37;102156.66;4893773;29;20032;-68
2022/07/15 00:15:40;;;;;;;6.28;2.83;;;;;;;13.85;82.00;102154.25;4893790;29;20135;-68
2022/07/15 00:18:06;;;;;;;7.93;3.38;;;;;;;13.84;82.26;102155.28;4893881;29;20037;-67
2022/07/15 00:20:33;;;;;;;10.25;2.63;;;;;;;13.81;82.24;102158.34;4887508;29;20043;-68
2022/07/15 00:23:05;;;;;;;7.10;2.75;;;;;;;13.80;81.89;102151.28;4894233;29;20040;-67
2022/07/15 00:25:31;;;;;;;10.77;4.25;;;;;;;13.76;81.66;102150.84;4893964;29;20056;-67
2022/07/15 00:28:03;;;;;;;11.38;3.65;;;;;;;13.77;82.46;102147.13;4893838;29;20437;-67
2022/07/15 00:30:31;;;;;;;8.43;2.88;;;;;;;13.80;82.48;102157.47;4893749;29;20116;-67
2022/07/15 00:32:57;;;;;;;5.93;3.28;;;;;;;13.81;82.46;102155.66;4893831;29;20107;-67
2022/07/15 00:35:22;;;;;;;12.27;3.67;;;;;;;13.81;82.41;102143.06;4893823;29;20135;-68
2022/07/15 00:37:47;;;;;;;5.43;2.50;;;;;;;13.85;81.92;102148.06;4893828;29;20116;-67
2022/07/15 00:40:13;;;;;;;8.65;2.83;;;;;;;13.91;81.61;102156.19;4894000;29;20123;-67
2022/07/15 00:42:44;;;;;;;9.60;3.67;;;;;;;13.96;81.15;102150.25;4893852;29;20045;-67
2022/07/15 00:45:15;;;;;;;10.82;3.47;;;;;;;13.97;81.20;102142.03;4893952;29;20089;-67
2022/07/15 00:47:49;;;;;;;6.88;2.78;;;;;;;13.93;80.92;102143.41;4893867;29;20032;-68
2022/07/15 00:50:16;;;;;;;10.88;3.60;;;;;;;13.95;81.43;102148.59;4893738;29;20064;-67
2022/07/15 00:52:45;;;;;;;9.48;3.75;;;;;;;13.87;81.30;102141.50;4894045;29;20041;-67
2022/07/15 00:55:12;;;;;;;5.47;3.05;;;;;;;13.88;81.61;102155.72;4894008;29;20017;-67
2022/07/15 00:57:42;;;;;;;7.88;3.15;;;;;;;13.79;82.09;102144.28;4893891;29;20092;-67
2022/07/15 01:00:11;;;;;;;6.18;2.63;;;;;;;13.74;82.33;102149.34;4893974;29;20033;-67
2022/07/15 01:02:38;;;;;;;8.15;2.97;;;;;;;13.67;82.35;102151.09;4893919;29;20048;-67
2022/07/15 01:05:05;;;;;;;7.38;3.38;;;;;;;13.62;82.60;102151.66;4876858;29;20421;-67
2022/07/15 01:07:32;;;;;;;7.55;2.95;;;;;;;13.57;82.82;102151.38;4893700;29;20426;-68
2022/07/15 01:09:58;;;;;;;6.70;2.53;;;;;;;13.49;83.07;102148.78;4893692;29;20044;-67
2022/07/15 01:12:24;;;;;;;6.00;3.45;;;;;;;13.45;83.12;102145.66;4893743;29;20088;-67
2022/07/15 01:14:50;;;;;;;9.85;2.95;;;;;;;13.42;83.50;102154.06;4893924;29;20111;-67
2022/07/15 01:17:16;;;;;;;10.88;3.05;;;;;;;13.37;83.89;102149.25;4896713;29;20119;-68
2022/07/15 01:19:41;;;;;;;5.55;2.58;;;;;;;13.30;83.27;102145.63;4897087;29;20040;-67
2022/07/15 01:22:07;;;;;;;6.53;3.35;;;;;;;13.34;83.64;102146.13;4896511;29;20424;-67
2022/07/15 01:24:33;;;;;;;7.18;3.15;;;;;;;13.31;83.85;102151.84;4897495;29;20035;-67
2022/07/15 01:26:59;;;;;;;11.20;4.53;;;;;;;13.25;83.88;102156.03;4897960;29;20032;-67
2022/07/15 01:29:24;;;;;;;7.65;3.08;;;;;;;13.24;84.24;102151.69;4896723;29;20040;-67
2022/07/15 01:31:50;;;;;;;4.07;2.72;;;;;;;13.21;84.35;102156.59;4896717;29;20028;-67
2022/07/15 01:34:16;;;;;;;8.10;2.92;;;;;;;13.10;84.58;102147.16;4896752;29;20041;-67
2022/07/15 01:36:41;;;;;;;11.38;3.00;;;;;;;13.13;84.77;102161.00;4896576;29;20477;-68
2022/07/15 01:39:06;;;;;;;9.43;3.60;;;;;;;13.13;84.58;102155.66;4896555;29;20067;-67
2022/07/15 01:41:32;;;;;;;8.63;3.55;;;;;;;13.13;84.50;102165.53;4896621;29;20033;-67
2022/07/15 01:43:57;;;;;;;5.90;2.95;;;;;;;13.09;84.27;102159.69;4896363;29;20092;-67
2022/07/15 01:46:23;;;;;;;7.45;2.58;;;;;;;13.03;84.59;102173.81;4896406;29;20064;-67
2022/07/15 01:51:32;;;;;;;15.70;3.58;;;;;;;12.97;84.98;102174.53;4896798;29;20806;-67
2022/07/15 01:53:58;;;;;;;7.45;3.95;;;;;;;12.97;85.14;102171.88;4896741;29;20161;-67
2022/07/15 01:56:23;;;;;;;9.13;3.95;;;;;;;12.97;85.06;102176.38;4896224;29;20381;-67
2022/07/15 01:58:49;;;;;;;10.93;3.25;;;;;;;12.91;85.02;102173.41;4896166;29;20400;-67
2022/07/15 02:01:14;;;;;;;9.75;3.67;;;;;;;12.87;85.21;102174.78;4896143;29;20144;-67
2022/07/15 02:03:40;;;;;;;6.47;3.53;;;;;;;12.86;85.16;102169.59;4896175;29;20495;-68
2022/07/15 02:06:05;;;;;;;5.57;2.85;;;;;;;12.84;85.43;102167.13;4895863;29;20072;-67
2022/07/15 02:08:31;;;;;;;7.43;2.95;;;;;;;12.81;85.71;102166.63;4896192;29;20033;-67
2022/07/15 02:10:56;;;;;;;7.35;3.15;;;;;;;12.76;85.91;102169.84;4896156;29;20041;-67
2022/07/15 02:13:22;;;;;;;8.02;3.25;;;;;;;12.57;85.41;102157.75;4896008;29;20067;-67
2022/07/15 02:15:47;;;;;;;5.80;2.72;;;;;;;12.54;86.34;102165.31;4896064;29;20036;-67
2022/07/15 02:18:12;;;;;;;7.25;3.72;;;;;;;12.47;86.55;102160.69;4896051;29;20484;-67
2022/07/15 02:20:38;;;;;;;5.95;3.42;;;;;;;12.52;86.43;102172.69;4895998;29;20485;-68
2022/07/15 02:23:03;;;;;;;8.50;3.65;;;;;;;12.50;86.74;102175.56;4895796;29;20033;-67
2022/07/15 02:25:31;;;;;;;7.38;3.38;;;;;;;12.49;86.97;102169.34;4895839;29;20200;-67
2022/07/15 02:27:59;;;;;;;8.60;3.40;;;;;;;12.49;87.04;102165.84;4894889;29;20079;-67
2022/07/15 02:30:27;;;;;;;5.97;2.83;;;;;;;12.51;86.64;102166.50;4895708;29;20033;-67
2022/07/15 02:32:52;;;;;;;8.30;3.28;;;;;;;12.52;87.00;102161.97;4895819;29;20027;-67
2022/07/15 02:35:17;;;;;;;7.32;4.10;;;;;;;12.49;87.19;102168.50;4895477;29;20064;-67
2022/07/15 02:37:44;;;;;;;8.32;3.33;;;;;;;12.46;87.24;102166.19;4895898;29;20032;-67
2022/07/15 02:40:10;;;;;;;8.65;3.35;;;;;;;12.50;87.30;102167.53;4895592;29;20048;-67
2022/07/15 02:42:35;;;;;;;15.93;4.45;;;;;;;12.49;87.27;102164.00;4895274;29;20051;-67
2022/07/15 02:45:01;;;;;;;5.55;3.17;;;;;;;12.46;87.46;102160.84;4895252;29;20115;-67
2022/07/15 02:47:26;;;;;;;5.13;2.85;;;;;;;12.44;87.48;102163.72;4894949;29;20044;-67
2022/07/15 02:49:52;;;;;;;10.68;3.42;;;;;;;12.38;87.68;102167.06;4895193;29;20039;-67
2022/07/15 02:52:17;;;;;;;11.07;4.55;;;;;;;12.38;87.56;102171.59;4878513;29;20111;-67
2022/07/15 02:54:42;;;;;;;8.85;3.65;;;;;;;12.36;88.08;102168.25;4878299;29;20045;-67
2022/07/15 02:57:08;;;;;;;10.13;3.20;;;;;;;12.39;88.51;102171.44;4894655;29;20179;-67
2022/07/15 02:59:33;;;;;;;9.25;3.72;;;;;;;12.39;87.88;102175.94;4895026;29;20073;-67
2022/07/15 03:01:59;;;;;;;9.23;4.28;;;;;;;12.40;88.55;102178.44;4878232;29;20434;-67
2022/07/15 03:04:24;;;;;;;9.65;3.10;;;;;;;12.41;87.80;102180.09;4895206;29;20048;-67
2022/07/15 03:06:50;;;;;;;9.50;3.83;;;;;;;12.41;88.24;102182.78;4895024;29;20056;-67
2022/07/15 03:09:15;;;;;;;10.45;3.67;;;;;;;12.43;88.30;102183.44;4895073;29;20036;-67
2022/07/15 03:11:40;;;;;;;11.25;3.78;;;;;;;12.41;88.15;102188.13;4895091;29;20043;-67
2022/07/15 03:14:06;;;;;;;10.77;4.30;;;;;;;12.43;88.38;102198.66;4895091;29;20056;-67
2022/07/15 03:16:31;;;;;;;13.98;3.80;;;;;;;12.42;88.63;102195.16;4894957;29;20033;-67
2022/07/15 03:18:57;;;;;;;7.72;3.60;;;;;;;12.40;88.05;102194.50;4894889;29;20143;-67
2022/07/15 03:21:22;;;;;;;10.13;4.20;;;;;;;12.45;87.94;102199.31;4878060;29;20096;-67
2022/07/15 03:23:47;;;;;;;9.38;3.85;;;;;;;12.40;88.00;102207.03;4894869;29;20040;-68
2022/07/15 03:26:13;;;;;;;9.93;3.13;;;;;;;12.32;87.66;102199.91;4894826;29;20044;-67
2022/07/15 03:28:38;;;;;;;9.70;4.90;;;;;;;12.30;87.97;102204.56;4894855;29;20384;-67
2022/07/15 03:31:04;;;;;;;6.57;3.25;;;;;;;12.31;87.72;102208.09;4877834;29;20072;-67
2022/07/15 03:33:29;;;;;;;8.80;3.45;;;;;;;12.29;87.38;102208.28;4894693;29;20024;-68
2022/07/15 03:35:54;;;;;;;21.15;4.85;;;;;;;12.28;88.71;102219.97;4894655;29;20033;-67
2022/07/15 03:38:20;;;;;;;12.35;3.60;;;;;;;12.26;88.25;102220.16;4894524;29;20035;-67
2022/07/15 03:40:45;;;;;;;6.82;3.28;;;;;;;12.30;89.02;102225.97;4894515;29;20047;-67
2022/07/15 03:43:10;;;;;;;6.55;2.95;;;;;;;12.32;89.27;102217.78;4894478;29;20033;-67
2022/07/15 03:45:36;;;;;;;8.10;3.10;;;;;;;12.37;89.02;102226.13;4894420;29;20036;-67
2022/07/15 03:48:01;;;;;;;11.30;3.85;;;;;;;12.40;89.28;102221.25;4894196;29;20040;-67
2022/07/15 03:50:27;;;;;;;13.98;3.38;;;;;;;12.41;88.78;102220.22;4894103;29;20037;-67
2022/07/15 03:52:52;;;;;;;9.73;3.17;;;;;;;12.43;88.81;102223.56;4894023;29;20060;-67
2022/07/15 03:55:17;;;;;;;8.73;3.05;;;;;;;12.45;88.68;102221.56;4894265;29;20119;-67
2022/07/15 03:57:43;;;;;;;6.32;3.13;;;;;;;12.44;88.57;102229.75;4894021;29;20180;-67
2022/07/15 04:00:09;;;;;;;7.88;3.50;;;;;;;12.47;88.96;102232.94;4894179;29;20112;-68
2022/07/15 04:02:34;;;;;;;6.97;3.05;;;;;;;12.47;88.43;102234.75;4893999;29;20537;-67
2022/07/15 04:04:59;;;;;;;7.57;3.08;;;;;;;12.48;88.52;102226.56;4894327;29;20029;-67
2022/07/15 04:07:25;;;;;;;8.20;3.45;;;;;;;12.48;88.56;102234.59;4877166;29;20072;-67
2022/07/15 04:09:50;;;;;;;13.43;3.58;;;;;;;12.55;88.38;102236.56;4894053;29;20024;-67
2022/07/15 04:12:15;;;;;;;8.15;3.20;;;;;;;12.56;88.24;102233.72;4893768;29;20052;-67
2022/07/15 04:14:41;;;;;;;10.02;3.50;;;;;;;12.55;88.49;102228.53;4893855;29;20032;-67
2022/07/15 04:17:06;;;;;;;6.13;2.92;;;;;;;12.62;88.54;102229.50;4894016;29;20055;-67
2022/07/15 04:19:32;;;;;;;6.07;3.22;;;;;;;12.68;88.27;102231.44;4894080;29;20036;-67
2022/07/15 04:21:57;;;;;;;8.73;3.42;;;;;;;12.63;88.14;102221.31;4893725;29;20036;-67
2022/07/15 04:24:22;;;;;;;10.75;4.00;;;;;;;12.78;88.34;102237.41;4877320;29;20484;-67
2022/07/15 04:26:48;;;;;;;5.70;2.70;;;;;;;12.82;88.01;102237.91;4893991;29;20131;-67
2022/07/15 04:29:13;;;;;;;6.35;3.13;;;;;;;12.86;87.77;102231.19;4893825;29;20072;-67
2022/07/15 04:31:38;;;;;;;7.03;3.53;;;;;;;12.92;87.49;102230.50;4893944;29;20572;-67
2022/07/15 04:34:04;;;;;;;13.07;4.05;;;;;;;12.99;87.18;102236.78;4894017;29;20568;-67
2022/07/15 04:36:29;;;;;;;13.02;3.58;;;;;;;13.04;87.38;102242.44;4893750;29;20064;-67
2022/07/15 04:38:54;;;;;;;7.53;3.22;;;;;;;13.08;86.95;102245.59;4894102;29;20040;-67
2022/07/15 04:41:20;;;;;;;7.05;3.50;;;;;;;13.10;86.77;102236.38;4893844;29;20381;-67
2022/07/15 04:43:45;;;;;;;11.93;3.10;;;;;;;13.26;86.53;102245.31;4893648;29;20373;-67
2022/07/15 04:46:11;;;;;;;12.20;3.85;;;;;;;13.27;86.19;102241.63;4893746;29;20060;-67
2022/07/15 04:51:20;;;;;;;10.20;4.15;;;;;;;13.50;85.61;102253.16;4896332;29;20051;-67
2022/07/15 04:53:46;;;;;;;9.27;3.53;;;;;;;13.58;86.00;102250.38;4897221;29;20032;-67
2022/07/15 04:56:12;;;;;;;11.77;4.38;;;;;;;13.59;85.63;102243.19;4897369;29;20401;-67
2022/07/15 04:58:38;;;;;;;14.45;3.95;;;;;;;13.64;85.21;102250.69;4897301;29;20049;-67
2022/07/15 05:01:03;;;;;;;10.88;4.10;;;;;;;13.67;85.11;102251.13;4897412;29;20096;-67
2022/07/15 05:03:28;;;;;;;14.82;4.68;;;;;;;13.70;84.89;102248.13;4880529;29;20032;-68
2022/07/15 05:05:55;;;;;;;11.45;3.80;;;;;;;13.81;84.88;102253.03;4880373;29;20099;-67
2022/07/15 05:08:20;;;;;;;7.97;4.95;;;;;;;13.88;84.67;102253.09;4897225;29;20039;-67
2022/07/15 05:10:46;;;;;;;11.50;3.53;;;;;;;13.95;84.31;102256.72;4896992;29;20032;-68
2022/07/15 05:13:11;;;;;;;11.70;4.97;;;;;;;14.01;84.37;102253.28;4880172;29;20025;-67
2022/07/15 05:15:36;;;;;;;14.57;4.10;;;;;;;14.09;84.12;102235.44;4896709;29;20033;-68
2022/07/15 05:18:02;;;;;;;10.90;4.00;;;;;;;14.31;83.80;102255.16;4896866;29;20033;-67
2022/07/15 05:20:27;;;;;;;8.20;4.20;;;;;;;14.36;84.40;102250.88;4897407;29;20409;-67
2022/07/15 05:22:53;;;;;;;14.13;4.25;;;;;;;14.44;84.46;102244.56;4896871;29;20040;-67
2022/07/15 05:25:18;;;;;;;15.65;4.28;;;;;;;14.58;83.98;102254.47;4896873;29;20488;-67
2022/07/15 05:27:44;;;;;;;8.63;4.00;;;;;;;14.61;83.97;102247.91;4879604;29;20033;-67
2022/07/15 05:30:12;;;;;;;10.05;4.00;;;;;;;14.71;83.21;102252.97;4896849;29;20032;-67
2022/07/15 05:32:38;;;;;;;9.90;4.22;;;;;;;14.79;82.64;102256.34;4896912;29;20490;-67
2022/07/15 05:35:03;;;;;;;9.63;3.63;;;;;;;14.84;82.48;102253.94;4879513;29;20037;-67
2022/07/15 05:37:29;;;;;;;6.90;3.88;;;;;;;14.90;82.85;102255.03;4896694;29;20044;-67
2022/07/15 05:39:54;;;;;;;8.25;3.58;;;;;;;14.98;82.33;102260.28;4896646;29;20473;-67
2022/07/15 05:42:21;;;;;;;8.82;3.55;;;;;;;15.03;81.39;102255.16;4896695;29;20131;-67
2022/07/15 05:44:47;;;;;;;5.43;2.63;;;;;;;15.11;81.80;102254.19;4896739;29;20141;-67
2022/07/15 05:47:13;;;;;;;9.15;3.47;;;;;;;15.09;80.45;102250.88;4896772;29;20035;-67
2022/07/15 05:49:38;;;;;;;7.85;3.17;;;;;;;15.08;81.15;102243.84;4896395;29;20119;-67
2022/07/15 05:52:04;;;;;;;8.20;3.58;;;;;;;15.12;81.21;102254.03;4896122;29;20060;-67
2022/07/15 05:54:29;;;;;;;8.85;3.20;;;;;;;15.01;80.93;102229.50;4896223;29;20036;-67
2022/07/15 05:56:55;;;;;;;7.70;3.30;;;;;;;15.12;80.38;102243.28;4896088;29;20484;-67
2022/07/15 05:59:20;;;;;;;6.10;2.80;;;;;;;15.15;81.01;102244.75;4896165;29;20086;-67
2022/07/15 06:01:46;;;;;;;7.47;3.20;;;;;;;15.21;80.78;102245.81;4896232;29;20075;-67
2022/07/15 06:04:13;;;;;;;6.28;3.00;;;;;;;15.26;79.81;102240.69;4896280;29;20070;-67
2022/07/15 06:06:39;;;;;;;6.43;3.55;;;;;;;15.34;78.56;102246.75;4896191;29;21037;-67
2022/07/15 06:09:04;;;;;;;5.97;3.17;;;;;;;15.55;78.28;102247.75;4896218;29;20045;-67
2022/07/15 06:11:29;;;;;;;9.75;3.00;;;;;;;15.64;78.15;102245.75;4896218;29;20112;-67
2022/07/15 06:13:55;;;;;;;8.40;2.95;;;;;;;15.66;77.29;102246.38;4896263;29;20123;-67
2022/07/15 06:16:20;;;;;;;10.40;3.00;;;;;;;15.74;77.00;102249.78;4896184;29;20112;-67
2022/07/15 06:18:46;;;;;;;9.48;4.05;;;;;;;15.75;75.85;102238.00;4895956;29;20056;-67
2022/07/15 06:21:11;;;;;;;10.25;2.70;;;;;;;15.78;75.51;102242.16;4879109;29;20039;-67
2022/07/15 06:23:37;;;;;;;6.72;2.20;;;;;;;15.77;75.49;102252.09;4880421;29;20377;-67
2022/07/15 06:26:02;;;;;;;7.22;2.55;;;;;;;15.78;76.60;102252.94;4895816;29;20054;-68
2022/07/15 06:28:27;;;;;;;10.68;2.65;;;;;;;15.81;76.24;102249.00;4895609;29;20064;-68
2022/07/15 06:30:53;;;;;;;6.60;2.15;;;;;;;15.86;73.99;102239.31;4895699;29;20029;-68
2022/07/15 06:33:18;;;;;;;4.07;1.55;;;;;;;15.90;72.41;102247.81;4895789;29;20123;-67
2022/07/15 06:35:44;;;;;;;6.00;2.58;;;;;;;15.92;73.58;102243.91;4879039;29;20461;-68
2022/07/15 06:38:09;;;;;;;9.65;2.05;;;;;;;15.94;72.74;102251.78;4878878;29;20060;-67
2022/07/15 06:40:35;;;;;;;5.32;1.98;;;;;;;15.98;75.02;102243.13;4895626;29;20037;-67
2022/07/15 06:43:00;;;;;;;2.83;1.40;;;;;;;16.05;73.53;102240.44;4895181;29;20055;-67
2022/07/15 06:45:26;;;;;;;4.45;1.70;;;;;;;16.02;72.35;102246.22;4895435;29;20032;-67
2022/07/15 06:47:51;;;;;;;3.47;1.58;;;;;;;15.99;74.17;102247.47;4895658;29;20156;-67
2022/07/15 06:50:16;;;;;;;5.63;1.85;;;;;;;15.90;70.52;102239.75;4895526;29;20064;-67
2022/07/15 06:52:42;;;;;;;4.25;1.95;;;;;;;15.84;72.53;102237.84;4895392;29;20044;-67
2022/07/15 06:55:08;;;;;;;5.63;1.95;;;;;;;15.90;73.04;102240.59;4894883;29;20043;-67
2022/07/15 06:57:33;;;;;;;6.45;2.28;;;;;;;16.00;73.48;102251.81;4894873;29;20041;-67
2022/07/15 07:00:01;;;;;;;5.45;1.65;;;;;;;16.05;72.58;102247.69;4878095;29;20037;-67
2022/07/15 07:02:26;;;;;;;6.75;2.00;;;;;;;16.11;72.04;102244.19;4894938;29;20029;-66
2022/07/15 07:04:51;;;;;;;5.55;1.98;;;;;;;16.13;70.79;102242.97;4894823;29;20088;-67
2022/07/15 07:07:17;;;;;;;3.85;1.73;;;;;;;16.16;70.47;102256.03;4894868;29;20068;-67
2022/07/15 07:09:42;;;;;;;6.50;2.30;;;;;;;16.19;71.43;102239.50;4895174;29;20060;-67
2022/07/15 07:12:08;;;;;;;3.33;2.03;;;;;;;16.23;70.69;102241.78;4894815;29;20052;-67
2022/07/15 07:14:34;;;;;;;6.38;1.75;;;;;;;16.26;68.65;102241.38;4894620;29;20040;-67
2022/07/15 07:16:59;;;;;;;3.65;1.83;;;;;;;16.28;70.72;102247.41;4895110;29;20445;-67
2022/07/15 07:19:25;;;;;;;4.65;1.73;;;;;;;16.35;70.73;102249.09;4895094;29;20051;-69
2022/07/15 07:21:50;;;;;;;7.07;2.00;;;;;;;16.38;69.52;102251.38;4890130;29;20028;-67
2022/07/15 07:24:15;;;;;;;8.98;2.13;;;;;;;16.44;68.73;102247.06;4890650;29;20112;-67
2022/07/15 07:26:41;;;;;;;8.25;2.20;;;;;;;16.51;69.77;102260.56;4890999;29;20485;-68
2022/07/15 07:29:06;;;;;;;5.03;2.45;;;;;;;16.56;68.13;102258.09;4890756;29;20040;-69
2022/07/15 07:31:31;;;;;;;10.38;2.25;;;;;;;16.58;68.25;102262.25;4890773;29;20036;-68
2022/07/15 07:33:57;;;;;;;9.27;1.80;;;;;;;16.70;68.80;102257.09;4890677;29;20051;-69
2022/07/15 07:36:25;;;;;;;8.68;2.58;;;;;;;16.78;66.09;102253.41;4890714;29;20036;-69
2022/07/15 07:38:50;;;;;;;2.47;0.98;;;;;;;16.83;65.56;102256.31;4894453;29;20039;-68
2022/07/15 07:41:16;;;;;;;6.63;3.42;;;;;;;16.89;66.20;102260.06;4894644;29;20389;-67
2022/07/15 07:43:42;;;;;;;6.32;2.05;;;;;;;16.86;67.45;102253.22;4894284;29;20031;-67
2022/07/15 07:46:07;;;;;;;8.63;1.67;;;;;;;16.83;66.82;102264.41;4894409;29;20036;-68
2022/07/15 07:48:33;;;;;;;3.45;2.03;;;;;;;16.90;67.67;102273.34;4877704;29;20045;-68
2022/07/15 07:50:58;;;;;;;6.07;2.15;;;;;;;16.96;66.85;102269.84;4894415;29;20041;-68
2022/07/15 07:53:24;;;;;;;7.72;3.50;;;;;;;16.99;66.92;102276.69;4894284;29;20037;-67
2022/07/15 07:55:50;;;;;;;3.58;1.83;;;;;;;16.95;64.52;102272.72;4894085;29;20036;-67
2022/07/15 07:58:16;;;;;;;6.40;2.10;;;;;;;16.89;66.46;102268.16;4876984;29;20032;-68
2022/07/15 08:00:42;;;;;;;4.82;2.08;;;;;;;17.03;65.09;102278.78;4893907;29;20445;-68
2022/07/15 08:03:08;;;;;;;6.57;1.77;;;;;;;17.11;65.44;102271.50;4894080;29;20040;-68
2022/07/15 08:05:33;;;;;;;2.28;1.30;;;;;;;17.20;63.80;102276.50;4894058;29;20083;-67
2022/07/15 08:08:17;;;;;;;3.72;1.40;;;;;;;17.32;64.77;102279.44;4894046;29;20656;-67
2022/07/15 08:10:44;;;;;;;5.22;1.40;;;;;;;17.36;62.77;102277.13;4894203;29;20120;-67
2022/07/15 08:13:10;;;;;;;4.95;1.73;;;;;;;17.44;63.46;102269.66;4894309;29;20025;-68
2022/07/15 08:15:36;;;;;;;4.35;1.50;;;;;;;17.60;61.71;102267.59;4877137;29;20508;-68
2022/07/15 08:18:02;;;;;;;7.03;1.15;;;;;;;18.41;59.35;102259.09;4894004;29;20560;-68
2022/07/15 08:20:29;;;;;;;3.42;1.20;;;;;;;20.65;53.33;102261.19;4894057;29;20040;-68
2022/07/15 08:22:58;;;;;;;5.95;1.25;;;;;;;22.92;48.55;102267.72;4894119;29;20084;-68
2022/07/15 08:25:36;;;;;;;2.25;0.90;;;;;;;25.22;44.60;102269.16;4879112;29;20039;-68
2022/07/15 08:28:02;;;;;;;2.88;0.90;;;;;;;26.62;38.32;102274.06;4897589;29;20068;-68
2022/07/15 08:30:29;;;;;;;4.45;1.08;;;;;;;27.83;35.53;102270.78;4897851;29;20036;-68
2022/07/15 08:32:55;;;;;;;3.42;0.90;;;;;;;28.44;34.07;102279.88;4897861;29;20107;-68
2022/07/15 08:35:22;;;;;;;4.70;1.60;;;;;;;28.65;32.65;102275.91;4897913;29;20099;-68
2022/07/15 08:37:48;;;;;;;6.28;1.10;;;;;;;28.89;33.15;102280.69;4897818;29;20037;-68
2022/07/15 08:40:14;;;;;;;9.77;1.42;;;;;;;29.41;32.01;102266.25;4897891;29;20036;-67
2022/07/15 08:42:42;;;;;;;5.35;1.50;;;;;;;29.22;31.55;102277.16;4897706;29;20036;-68
2022/07/15 08:45:08;;;;;;;1.77;0.90;;;;;;;27.43;34.96;102282.59;4897808;29;20036;-68
2022/07/15 08:47:36;;;;;;;6.10;1.63;;;;;;;25.39;36.69;102282.66;4897644;29;21062;-68
2022/07/15 08:50:03;;;;;;;2.67;1.00;;;;;;;25.52;37.45;102274.03;4897615;29;20054;-68
2022/07/15 08:52:33;;;;;;;2.92;1.40;;;;;;;27.11;34.74;102254.34;4898375;29;20029;-68
2022/07/15 08:54:58;;;;;;;6.00;1.38;;;;;;;28.12;32.42;102262.72;4897509;29;20032;-68
2022/07/15 08:57:23;;;;;;;5.63;1.33;;;;;;;29.02;32.10;102263.53;4897322;29;20029;-68
2022/07/15 08:59:50;;;;;;;10.57;1.83;;;;;;;30.01;31.48;102260.38;4897014;29;20059;-69
2022/07/15 09:02:19;;;;;;;2.45;1.08;;;;;;;30.62;30.53;102266.19;4896842;29;20467;-69
2022/07/15 09:05:18;;;;;;;4.50;1.58;;;;;;;31.08;32.84;102263.56;4897496;29;20153;-68
2022/07/15 09:08:15;;;;;;;2.25;1.10;;;;;;;30.51;31.08;102263.59;4897509;29;20040;-70
2022/07/15 09:10:47;;;;;;;7.40;1.65;;;;;;;28.30;33.27;102255.75;4897447;29;20040;-69
2022/07/15 09:13:31;;;;;;;3.63;1.45;;;;;;;26.46;36.70;102255.91;4880277;29;20029;-68
2022/07/15 09:16:25;;;;;;;6.30;1.58;;;;;;;24.86;38.88;102242.34;4897140;29;20028;-68
2022/07/15 09:18:51;;;;;;;3.05;1.27;;;;;;;23.79;40.91;102241.91;4893804;29;20040;-68
2022/07/15 09:21:18;;;;;;;6.07;1.02;;;;;;;23.25;42.40;102249.78;4897142;29;20036;-68
2022/07/15 09:23:44;;;;;;;4.03;1.10;;;;;;;22.68;43.08;102252.56;4896909;29;20511;-72
2022/07/15 09:26:32;;;;;;;1.85;1.08;;;;;;;22.04;43.63;102249.91;4896984;29;20123;-72
2022/07/15 09:28:59;;;;;;;4.47;2.42;;;;;;;21.49;45.84;102253.03;4896879;29;20542;-73
2022/07/15 09:34:15;;;;;;;4.03;1.13;;;;;;;21.23;46.02;102255.91;4896981;29;20181;-73
2022/07/15 09:36:44;;;;;;;2.45;1.35;;;;;;;21.16;46.79;102251.66;4896194;29;20040;-73
2022/07/15 09:39:09;;;;;;;2.47;1.35;;;;;;;21.08;45.84;102246.56;4890073;29;20083;-73
2022/07/15 09:41:39;;;;;;;6.85;1.30;;;;;;;21.18;47.60;102247.66;4880030;29;20080;-73
2022/07/15 09:44:13;;;;;;;6.03;1.42;;;;;;;21.40;47.67;102252.53;4896693;29;20433;-73
2022/07/15 09:46:50;;;;;;;6.38;1.40;;;;;;;21.36;46.76;102259.47;4896706;29;20032;-73
2022/07/15 09:49:22;;;;;;;5.85;2.58;;;;;;;20.95;47.40;102255.72;4896687;29;20035;-73
2022/07/15 09:52:04;;;;;;;3.92;1.05;;;;;;;20.76;47.67;102252.25;4896593;29;20840;-73
2022/07/15 09:54:33;;;;;;;;;;;;;;;20.47;47.65;102262.84;4896942;29;20035;-73
2022/07/15 09:57:01;;;;;;;2.28;1.40;;;;;;;19.86;47.92;102250.22;4896293;29;19922;-73
2022/07/15 09:59:29;;;;;;;7.32;1.42;;;;;;;19.71;47.86;102250.56;4879211;29;20036;-73
2022/07/15 10:01:55;;;;;;;6.88;1.58;;;;;;;19.91;48.13;102240.38;4895889;29;20041;-73
2022/07/15 10:04:23;;;;;;;1.80;0.90;;;;;;;20.20;50.15;102239.81;4895812;29;20548;-73
2022/07/15 10:06:50;;;;;;;3.00;1.00;;;;;;;20.43;47.74;102241.81;4895910;29;20064;-73
2022/07/15 10:09:22;;;;;;;4.90;1.20;;;;;;;20.71;49.04;102242.09;4896232;29;20037;-73
2022/07/15 10:11:52;;;;;;;;;;;;;;;20.70;47.62;102242.34;4896663;29;20898;-73
2022/07/15 10:14:29;;;;;;;4.53;1.45;;;;;;;20.29;48.23;102241.19;4896094;29;19922;-73
2022/07/15 10:17:28;;;;;;;5.63;1.45;;;;;;;20.14;49.63;102236.97;4896037;29;20032;-73
2022/07/15 10:20:12;;;;;;;3.28;1.40;;;;;;;20.07;49.87;102240.81;4895792;29;20484;-73
2022/07/15 10:22:59;;;;;;;3.05;1.05;;;;;;;20.30;50.26;102229.28;4895796;29;20062;-73
2022/07/15 10:25:55;;;;;;;9.55;2.25;;;;;;;20.48;47.84;102231.13;4863998;29;20036;-73
2022/07/15 10:28:31;;;;;;;2.47;1.27;;;;;;;20.64;50.27;102226.97;4895925;29;20032;-73
2022/07/15 10:31:28;;;;;;;0.82;0.80;;;;;;;20.93;47.58;102219.88;4895421;29;20032;-73
2022/07/15 10:34:17;;;;;;;2.13;0.80;;;;;;;20.90;47.90;102223.88;4895715;29;20028;-73
2022/07/15 10:36:45;;;;;;;4.10;1.38;;;;;;;20.82;47.43;102220.69;4887914;29;20179;-73
2022/07/15 10:39:11;;;;;;;2.58;1.08;;;;;;;20.71;47.25;102214.16;4895825;29;20413;-73
2022/07/15 10:41:58;;;;;;;2.95;1.20;;;;;;;20.62;48.22;102226.38;4895629;29;20032;-75
2022/07/15 10:44:30;;;;;;;2.25;1.00;;;;;;;20.41;49.11;102203.28;4895385;29;20115;-68
2022/07/15 10:47:28;;;;;;;5.55;1.27;;;;;;;20.49;49.50;102217.38;4895532;29;20048;-68
2022/07/15 10:49:53;;;;;;;4.90;1.33;;;;;;;20.84;49.46;102216.66;4863728;29;20571;-68
2022/07/15 10:52:20;;;;;;;7.32;2.90;;;;;;;21.20;46.78;102204.00;4895193;29;20036;-68
2022/07/15 10:54:55;;;;;;;2.40;1.10;;;;;;;21.53;46.28;102211.56;4895450;29;20036;-68
2022/07/15 10:57:44;;;;;;;1.92;0.90;;;;;;;21.55;46.26;102200.50;4895338;29;20028;-68
2022/07/15 11:00:15;;;;;;;4.80;1.10;;;;;;;21.26;45.46;102199.53;4895301;29;20036;-68
2022/07/15 11:03:12;;;;;;;4.78;1.10;;;;;;;21.04;47.78;102193.81;4894794;29;20033;-68
2022/07/15 11:05:58;;;;;;;4.43;1.23;;;;;;;20.90;47.54;102198.63;4895172;29;20055;-68
2022/07/15 11:08:36;;;;;;;3.70;1.50;;;;;;;21.23;48.77;102198.94;4894962;29;20052;-68
2022/07/15 11:11:13;;;;;;;4.90;1.55;;;;;;;21.47;46.33;102188.09;4895034;29;20033;-68
2022/07/15 11:13:38;;;;;;;1.73;1.00;;;;;;;21.63;44.52;102189.25;4894983;29;20032;-68
2022/07/15 11:16:06;;;;;;;5.20;1.50;;;;;;;21.60;44.31;102187.84;4878268;29;20370;-67
2022/07/15 11:18:54;;;;;;;5.38;1.20;;;;;;;21.41;46.51;102192.59;4894834;29;20392;-68
2022/07/15 11:21:20;;;;;;;5.72;1.48;;;;;;;21.18;46.09;102197.97;4894855;29;20032;-68
2022/07/15 11:23:47;;;;;;;6.28;1.27;;;;;;;21.18;46.67;102197.97;4894797;29;20039;-68
2022/07/15 11:26:13;;;;;;;1.20;1.02;;;;;;;21.44;45.08;102196.72;4894821;29;20566;-68
2022/07/15 11:28:54;;;;;;;4.97;1.30;;;;;;;21.68;44.65;102197.53;4894994;29;20040;-68
2022/07/15 11:31:20;;;;;;;3.20;1.07;;;;;;;21.88;44.89;102187.09;4894956;29;20047;-68
2022/07/15 11:33:46;;;;;;;1.45;1.20;;;;;;;22.05;43.25;102179.00;4894309;29;20280;-67
2022/07/15 11:36:21;;;;;;;5.88;1.13;;;;;;;21.91;43.79;102176.84;4894013;29;20053;-68